sensor_id;sensor_type;location;lat;lon;timestamp;temperature;humidity
11140;DHT22;5624;49.388;11.350;2023-01-25T00:01:44;-0.30;99.90
11140;DHT22;5624;49.388;11.350;2023-01-25T00:04:10;-0.40;99.60
11140;DHT22;5624;49.388;11.350;2023-01-25T00:06:36;-0.40;99.50
11140;DHT22;5624;49.388;11.350;2023-01-25T00:09:02;-0.50;99.80
11140;DHT22;5624;49.388;11.350;2023-01-25T00:11:28;-0.50;99.90
11140;DHT22;5624;49.388;11.350;2023-01-25T00:13:54;-0.60;99.90
11140;DHT22;5624;49.388;11.350;2023-01-25T00:16:20;-0.60;99.90
11140;DHT22;5624;49.388;11.350;2023-01-25T00:18:47;-0.60;99.90
11140;DHT22;5624;49.388;11.350;2023-01-25T00:23:38;-0.60;99.90
11140;DHT22;5624;49.388;11.350;2023-01-25T00:26:04;-0.60;99.90
11140;DHT22;5624;49.388;11.350;2023-01-25T00:28:29;-0.60;99.90
11140;DHT22;5624;49.388;11.350;2023-01-25T00:31:04;-0.60;99.90
11140;DHT22;5624;49.388;11.350;2023-01-25T00:36:19;-0.50;99.90
11140;DHT22;5624;49.388;11.350;2023-01-25T00:38:46;-0.50;99.90
11140;DHT22;5624;49.388;11.350;2023-01-25T00:41:12;-0.50;99.90
11140;DHT22;5624;49.388;11.350;2023-01-25T00:43:37;-0.50;99.90
11140;DHT22;5624;49.388;11.350;2023-01-25T00:46:03;-0.60;99.90
11140;DHT22;5624;49.388;11.350;2023-01-25T00:48:29;-0.50;99.90
11140;DHT22;5624;49.388;11.350;2023-01-25T00:51:01;-0.60;99.90
11140;DHT22;5624;49.388;11.350;2023-01-25T00:53:27;-0.50;99.90
11140;DHT22;5624;49.388;11.350;2023-01-25T00:55:53;-0.50;99.90
11140;DHT22;5624;49.388;11.350;2023-01-25T00:58:18;-0.40;99.70
11140;DHT22;5624;49.388;11.350;2023-01-25T01:00:44;-0.50;99.90
11140;DHT22;5624;49.388;11.350;2023-01-25T01:03:10;-0.40;99.80
11140;DHT22;5624;49.388;11.350;2023-01-25T01:05:35;-0.40;99.70
11140;DHT22;5624;49.388;11.350;2023-01-25T01:08:01;-0.40;99.90
11140;DHT22;5624;49.388;11.350;2023-01-25T01:10:27;-0.50;99.60
11140;DHT22;5624;49.388;11.350;2023-01-25T01:12:53;-0.50;99.80
11140;DHT22;5624;49.388;11.350;2023-01-25T01:15:18;-0.50;99.90
11140;DHT22;5624;49.388;11.350;2023-01-25T01:17:44;-0.60;99.90
11140;DHT22;5624;49.388;11.350;2023-01-25T01:20:10;-0.60;99.90
11140;DHT22;5624;49.388;11.350;2023-01-25T01:22:35;-0.60;99.90
11140;DHT22;5624;49.388;11.350;2023-01-25T01:25:01;-0.70;99.90
11140;DHT22;5624;49.388;11.350;2023-01-25T01:27:27;-0.80;99.90
11140;DHT22;5624;49.388;11.350;2023-01-25T01:29:53;-0.80;99.90
11140;DHT22;5624;49.388;11.350;2023-01-25T01:32:18;-0.80;99.90
11140;DHT22;5624;49.388;11.350;2023-01-25T01:34:44;-0.80;99.90
11140;DHT22;5624;49.388;11.350;2023-01-25T01:37:09;-0.70;99.90
11140;DHT22;5624;49.388;11.350;2023-01-25T01:39:35;-0.70;99.90
11140;DHT22;5624;49.388;11.350;2023-01-25T01:42:01;-0.70;99.90
11140;DHT22;5624;49.388;11.350;2023-01-25T01:44:43;-0.80;99.90
11140;DHT22;5624;49.388;11.350;2023-01-25T01:47:17;-0.80;99.90
11140;DHT22;5624;49.388;11.350;2023-01-25T01:49:52;-0.90;99.90
11140;DHT22;5624;49.388;11.350;2023-01-25T01:52:22;-0.80;99.90
11140;DHT22;5624;49.388;11.350;2023-01-25T01:54:54;-0.80;99.90
11140;DHT22;5624;49.388;11.350;2023-01-25T01:57:24;-0.80;99.70
11140;DHT22;5624;49.388;11.350;2023-01-25T01:59:56;-0.80;99.90
11140;DHT22;5624;49.388;11.350;2023-01-25T02:02:24;-0.80;99.90
11140;DHT22;5624;49.388;11.350;2023-01-25T02:04:52;-0.80;99.90
11140;DHT22;5624;49.388;11.350;2023-01-25T02:07:32;-0.80;99.90
11140;DHT22;5624;49.388;11.350;2023-01-25T02:09:59;-0.80;99.90
11140;DHT22;5624;49.388;11.350;2023-01-25T02:12:25;-0.80;99.90
11140;DHT22;5624;49.388;11.350;2023-01-25T02:14:52;-0.80;99.90
11140;DHT22;5624;49.388;11.350;2023-01-25T02:17:32;-0.80;99.90
11140;DHT22;5624;49.388;11.350;2023-01-25T02:20:20;-0.70;99.90
11140;DHT22;5624;49.388;11.350;2023-01-25T02:23:21;-0.70;99.30
11140;DHT22;5624;49.388;11.350;2023-01-25T02:25:48;-0.70;99.60
11140;DHT22;5624;49.388;11.350;2023-01-25T02:28:20;-0.70;99.50
11140;DHT22;5624;49.388;11.350;2023-01-25T02:30:47;-0.70;99.90
11140;DHT22;5624;49.388;11.350;2023-01-25T02:33:13;-0.80;99.80
11140;DHT22;5624;49.388;11.350;2023-01-25T02:35:48;-0.80;99.90
11140;DHT22;5624;49.388;11.350;2023-01-25T02:38:17;-0.80;99.90
11140;DHT22;5624;49.388;11.350;2023-01-25T02:41:07;-1.00;99.90
11140;DHT22;5624;49.388;11.350;2023-01-25T02:43:36;-1.00;99.90
11140;DHT22;5624;49.388;11.350;2023-01-25T02:46:17;-1.00;99.90
11140;DHT22;5624;49.388;11.350;2023-01-25T02:48:44;-1.00;99.90
11140;DHT22;5624;49.388;11.350;2023-01-25T02:51:10;-1.00;99.90
11140;DHT22;5624;49.388;11.350;2023-01-25T02:53:36;-1.10;99.90
11140;DHT22;5624;49.388;11.350;2023-01-25T02:56:02;-1.00;99.90
11140;DHT22;5624;49.388;11.350;2023-01-25T02:58:28;-1.00;99.70
11140;DHT22;5624;49.388;11.350;2023-01-25T03:00:54;-1.00;99.60
11140;DHT22;5624;49.388;11.350;2023-01-25T03:03:20;-0.90;99.10
11140;DHT22;5624;49.388;11.350;2023-01-25T03:05:45;-1.00;99.50
11140;DHT22;5624;49.388;11.350;2023-01-25T03:08:11;-1.00;99.30
11140;DHT22;5624;49.388;11.350;2023-01-25T03:10:37;-0.90;98.80
11140;DHT22;5624;49.388;11.350;2023-01-25T03:13:02;-0.90;99.10
11140;DHT22;5624;49.388;11.350;2023-01-25T03:15:28;-0.90;99.30
11140;DHT22;5624;49.388;11.350;2023-01-25T03:17:55;-0.90;99.30
11140;DHT22;5624;49.388;11.350;2023-01-25T03:20:21;-0.80;99.20
11140;DHT22;5624;49.388;11.350;2023-01-25T03:22:47;-0.90;99.00
11140;DHT22;5624;49.388;11.350;2023-01-25T03:25:13;-0.90;99.30
11140;DHT22;5624;49.388;11.350;2023-01-25T03:27:38;-0.90;99.90
11140;DHT22;5624;49.388;11.350;2023-01-25T03:30:04;-0.80;99.00
11140;DHT22;5624;49.388;11.350;2023-01-25T03:32:30;-0.80;99.20
11140;DHT22;5624;49.388;11.350;2023-01-25T03:34:55;-0.80;99.60
11140;DHT22;5624;49.388;11.350;2023-01-25T03:37:23;-0.80;99.90
11140;DHT22;5624;49.388;11.350;2023-01-25T03:39:51;-0.80;99.40
11140;DHT22;5624;49.388;11.350;2023-01-25T03:42:19;-0.80;99.60
11140;DHT22;5624;49.388;11.350;2023-01-25T03:44:45;-0.80;99.90
11140;DHT22;5624;49.388;11.350;2023-01-25T03:47:11;-0.80;99.60
11140;DHT22;5624;49.388;11.350;2023-01-25T03:49:36;-0.80;99.50
11140;DHT22;5624;49.388;11.350;2023-01-25T03:52:02;-0.80;99.50
11140;DHT22;5624;49.388;11.350;2023-01-25T03:54:28;-0.80;98.40
11140;DHT22;5624;49.388;11.350;2023-01-25T03:56:53;-0.80;98.90
11140;DHT22;5624;49.388;11.350;2023-01-25T03:59:19;-0.80;98.80
11140;DHT22;5624;49.388;11.350;2023-01-25T04:01:45;-0.80;98.70
11140;DHT22;5624;49.388;11.350;2023-01-25T04:04:10;-0.80;98.40
11140;DHT22;5624;49.388;11.350;2023-01-25T04:06:36;-0.80;98.30
11140;DHT22;5624;49.388;11.350;2023-01-25T04:09:01;-0.90;98.40
11140;DHT22;5624;49.388;11.350;2023-01-25T04:11:27;-0.80;98.50
11140;DHT22;5624;49.388;11.350;2023-01-25T04:13:53;-0.80;98.50
11140;DHT22;5624;49.388;11.350;2023-01-25T04:16:18;-0.90;98.80
11140;DHT22;5624;49.388;11.350;2023-01-25T04:18:44;-0.80;98.80
11140;DHT22;5624;49.388;11.350;2023-01-25T04:21:09;-0.80;98.80
11140;DHT22;5624;49.388;11.350;2023-01-25T04:23:35;-0.80;99.20
11140;DHT22;5624;49.388;11.350;2023-01-25T04:26:03;-0.80;98.80
11140;DHT22;5624;49.388;11.350;2023-01-25T04:28:30;-0.90;99.40
11140;DHT22;5624;49.388;11.350;2023-01-25T04:30:56;-0.80;99.20
11140;DHT22;5624;49.388;11.350;2023-01-25T04:33:22;-0.80;99.60
11140;DHT22;5624;49.388;11.350;2023-01-25T04:35:47;-0.90;99.40
11140;DHT22;5624;49.388;11.350;2023-01-25T04:38:13;-0.90;99.90
11140;DHT22;5624;49.388;11.350;2023-01-25T04:40:39;-0.90;99.90
11140;DHT22;5624;49.388;11.350;2023-01-25T04:43:06;-0.90;99.90
11140;DHT22;5624;49.388;11.350;2023-01-25T04:45:32;-0.90;99.90
11140;DHT22;5624;49.388;11.350;2023-01-25T04:48:00;-0.90;99.90
11140;DHT22;5624;49.388;11.350;2023-01-25T04:50:26;-1.00;99.90
11140;DHT22;5624;49.388;11.350;2023-01-25T04:52:52;-0.90;99.90
11140;DHT22;5624;49.388;11.350;2023-01-25T04:55:18;-0.90;99.30
11140;DHT22;5624;49.388;11.350;2023-01-25T04:57:44;-0.80;98.30
11140;DHT22;5624;49.388;11.350;2023-01-25T05:00:10;-0.80;98.00
11140;DHT22;5624;49.388;11.350;2023-01-25T05:02:36;-0.90;98.40
11140;DHT22;5624;49.388;11.350;2023-01-25T05:05:04;-0.90;99.00
11140;DHT22;5624;49.388;11.350;2023-01-25T05:07:29;-1.00;99.60
11140;DHT22;5624;49.388;11.350;2023-01-25T05:09:55;-0.90;99.40
11140;DHT22;5624;49.388;11.350;2023-01-25T05:12:21;-0.90;99.30
11140;DHT22;5624;49.388;11.350;2023-01-25T05:14:46;-0.90;99.00
11140;DHT22;5624;49.388;11.350;2023-01-25T05:17:12;-0.90;99.30
11140;DHT22;5624;49.388;11.350;2023-01-25T05:19:38;-0.90;99.30
11140;DHT22;5624;49.388;11.350;2023-01-25T05:22:04;-0.90;99.20
11140;DHT22;5624;49.388;11.350;2023-01-25T05:24:33;-0.90;98.90
11140;DHT22;5624;49.388;11.350;2023-01-25T05:27:00;-0.80;98.80
11140;DHT22;5624;49.388;11.350;2023-01-25T05:29:34;-0.70;98.40
11140;DHT22;5624;49.388;11.350;2023-01-25T05:32:01;-0.70;97.90
11140;DHT22;5624;49.388;11.350;2023-01-25T05:34:27;-0.80;98.00
11140;DHT22;5624;49.388;11.350;2023-01-25T05:36:53;-0.90;98.30
11140;DHT22;5624;49.388;11.350;2023-01-25T05:39:19;-0.90;98.90
11140;DHT22;5624;49.388;11.350;2023-01-25T05:41:44;-0.90;99.30
11140;DHT22;5624;49.388;11.350;2023-01-25T05:44:10;-0.80;99.20
11140;DHT22;5624;49.388;11.350;2023-01-25T05:46:36;-0.80;99.00
11140;DHT22;5624;49.388;11.350;2023-01-25T05:49:01;-0.80;99.00
11140;DHT22;5624;49.388;11.350;2023-01-25T05:51:28;-0.80;99.20
11140;DHT22;5624;49.388;11.350;2023-01-25T05:53:54;-0.80;99.40
11140;DHT22;5624;49.388;11.350;2023-01-25T05:56:20;-0.80;98.40
11140;DHT22;5624;49.388;11.350;2023-01-25T05:58:46;-0.80;98.60
11140;DHT22;5624;49.388;11.350;2023-01-25T06:01:12;-0.80;98.90
11140;DHT22;5624;49.388;11.350;2023-01-25T06:03:38;-0.80;98.30
11140;DHT22;5624;49.388;11.350;2023-01-25T06:06:03;-0.80;97.50
11140;DHT22;5624;49.388;11.350;2023-01-25T06:08:30;-0.80;97.40
11140;DHT22;5624;49.388;11.350;2023-01-25T06:10:56;-0.90;97.80
11140;DHT22;5624;49.388;11.350;2023-01-25T06:13:23;-0.90;98.20
11140;DHT22;5624;49.388;11.350;2023-01-25T06:15:56;-0.90;98.20
11140;DHT22;5624;49.388;11.350;2023-01-25T06:18:22;-0.90;98.20
11140;DHT22;5624;49.388;11.350;2023-01-25T06:20:50;-0.90;98.10
11140;DHT22;5624;49.388;11.350;2023-01-25T06:23:16;-1.00;98.10
11140;DHT22;5624;49.388;11.350;2023-01-25T06:25:41;-0.90;98.00
11140;DHT22;5624;49.388;11.350;2023-01-25T06:28:07;-0.90;98.10
11140;DHT22;5624;49.388;11.350;2023-01-25T06:30:33;-0.90;97.60
11140;DHT22;5624;49.388;11.350;2023-01-25T06:33:00;-1.00;97.50
11140;DHT22;5624;49.388;11.350;2023-01-25T06:35:26;-1.10;97.80
11140;DHT22;5624;49.388;11.350;2023-01-25T06:37:56;-1.10;98.30
11140;DHT22;5624;49.388;11.350;2023-01-25T06:40:21;-1.10;98.10
11140;DHT22;5624;49.388;11.350;2023-01-25T06:42:47;-1.20;98.50
11140;DHT22;5624;49.388;11.350;2023-01-25T06:45:12;-1.10;98.60
11140;DHT22;5624;49.388;11.350;2023-01-25T06:47:39;-1.10;98.60
11140;DHT22;5624;49.388;11.350;2023-01-25T06:50:05;-1.10;98.60
11140;DHT22;5624;49.388;11.350;2023-01-25T06:52:31;-1.10;98.90
11140;DHT22;5624;49.388;11.350;2023-01-25T06:55:01;-1.10;99.10
11140;DHT22;5624;49.388;11.350;2023-01-25T06:57:26;-1.10;99.20
11140;DHT22;5624;49.388;11.350;2023-01-25T06:59:53;-1.10;99.60
11140;DHT22;5624;49.388;11.350;2023-01-25T07:02:20;-1.00;98.60
11140;DHT22;5624;49.388;11.350;2023-01-25T07:04:46;-1.00;99.40
11140;DHT22;5624;49.388;11.350;2023-01-25T07:07:11;-1.00;99.10
11140;DHT22;5624;49.388;11.350;2023-01-25T07:09:37;-1.00;99.10
11140;DHT22;5624;49.388;11.350;2023-01-25T07:12:03;-0.90;99.00
11140;DHT22;5624;49.388;11.350;2023-01-25T07:14:29;-0.90;97.90
11140;DHT22;5624;49.388;11.350;2023-01-25T07:16:55;-1.00;98.40
11140;DHT22;5624;49.388;11.350;2023-01-25T07:19:21;-1.00;98.40
11140;DHT22;5624;49.388;11.350;2023-01-25T07:21:47;-1.00;98.30
11140;DHT22;5624;49.388;11.350;2023-01-25T07:24:15;-0.90;98.00
11140;DHT22;5624;49.388;11.350;2023-01-25T07:26:42;-0.90;97.00
11140;DHT22;5624;49.388;11.350;2023-01-25T07:29:11;-1.00;97.60
11140;DHT22;5624;49.388;11.350;2023-01-25T07:31:38;-1.00;97.70
11140;DHT22;5624;49.388;11.350;2023-01-25T07:34:04;-0.90;97.30
11140;DHT22;5624;49.388;11.350;2023-01-25T07:36:31;-0.90;97.50
11140;DHT22;5624;49.388;11.350;2023-01-25T07:38:58;-1.00;97.70
11140;DHT22;5624;49.388;11.350;2023-01-25T07:41:24;-1.00;97.90
11140;DHT22;5624;49.388;11.350;2023-01-25T07:43:50;-1.00;97.40
11140;DHT22;5624;49.388;11.350;2023-01-25T07:46:16;-1.00;97.60
11140;DHT22;5624;49.388;11.350;2023-01-25T07:48:47;-1.10;98.00
11140;DHT22;5624;49.388;11.350;2023-01-25T07:51:15;-1.10;98.40
11140;DHT22;5624;49.388;11.350;2023-01-25T07:53:58;-1.20;98.90
11140;DHT22;5624;49.388;11.350;2023-01-25T07:56:28;-1.10;99.00
11140;DHT22;5624;49.388;11.350;2023-01-25T07:58:56;-1.10;98.80
11140;DHT22;5624;49.388;11.350;2023-01-25T08:01:23;-1.10;99.10
11140;DHT22;5624;49.388;11.350;2023-01-25T08:03:50;-1.10;98.90
11140;DHT22;5624;49.388;11.350;2023-01-25T08:06:21;-1.10;99.10
11140;DHT22;5624;49.388;11.350;2023-01-25T08:08:49;-1.00;98.50
11140;DHT22;5624;49.388;11.350;2023-01-25T08:11:20;-0.90;98.00
11140;DHT22;5624;49.388;11.350;2023-01-25T08:13:46;-0.90;97.80
11140;DHT22;5624;49.388;11.350;2023-01-25T08:16:16;-1.00;97.10
11140;DHT22;5624;49.388;11.350;2023-01-25T08:18:45;-0.90;97.10
11140;DHT22;5624;49.388;11.350;2023-01-25T08:21:11;-0.90;97.00
11140;DHT22;5624;49.388;11.350;2023-01-25T08:23:37;-0.80;97.10
11140;DHT22;5624;49.388;11.350;2023-01-25T08:26:07;-0.90;95.70
11140;DHT22;5624;49.388;11.350;2023-01-25T08:28:33;-0.90;96.10
11140;DHT22;5624;49.388;11.350;2023-01-25T08:31:17;-1.00;96.20
11140;DHT22;5624;49.388;11.350;2023-01-25T08:33:44;-1.00;96.60
11140;DHT22;5624;49.388;11.350;2023-01-25T08:36:11;-1.00;96.80
11140;DHT22;5624;49.388;11.350;2023-01-25T08:38:38;-1.00;97.20
11140;DHT22;5624;49.388;11.350;2023-01-25T08:43:31;-0.90;97.00
11140;DHT22;5624;49.388;11.350;2023-01-25T08:45:56;-0.90;96.60
11140;DHT22;5624;49.388;11.350;2023-01-25T08:48:22;-0.80;96.90
11140;DHT22;5624;49.388;11.350;2023-01-25T08:50:48;-0.80;96.20
11140;DHT22;5624;49.388;11.350;2023-01-25T08:53:14;-0.70;95.80
11140;DHT22;5624;49.388;11.350;2023-01-25T08:55:40;-0.70;95.90
11140;DHT22;5624;49.388;11.350;2023-01-25T08:58:09;-0.60;95.20
11140;DHT22;5624;49.388;11.350;2023-01-25T09:00:37;-0.80;95.50
11140;DHT22;5624;49.388;11.350;2023-01-25T09:03:03;-0.70;94.70
11140;DHT22;5624;49.388;11.350;2023-01-25T09:05:28;-0.80;95.00
11140;DHT22;5624;49.388;11.350;2023-01-25T09:07:54;-0.80;95.90
11140;DHT22;5624;49.388;11.350;2023-01-25T09:10:19;-0.70;95.40
11140;DHT22;5624;49.388;11.350;2023-01-25T09:12:45;-0.50;95.40
11140;DHT22;5624;49.388;11.350;2023-01-25T09:15:11;-0.60;94.70
11140;DHT22;5624;49.388;11.350;2023-01-25T09:17:37;-0.60;94.70
11140;DHT22;5624;49.388;11.350;2023-01-25T09:20:05;-0.60;94.90
11140;DHT22;5624;49.388;11.350;2023-01-25T09:22:31;-0.60;94.80
11140;DHT22;5624;49.388;11.350;2023-01-25T09:24:57;-0.80;95.20
11140;DHT22;5624;49.388;11.350;2023-01-25T09:27:23;-0.90;96.40
11140;DHT22;5624;49.388;11.350;2023-01-25T09:29:48;-0.80;96.50
11140;DHT22;5624;49.388;11.350;2023-01-25T09:32:14;-0.80;95.50
11140;DHT22;5624;49.388;11.350;2023-01-25T09:34:40;-0.70;95.70
11140;DHT22;5624;49.388;11.350;2023-01-25T09:37:05;-0.70;95.90
11140;DHT22;5624;49.388;11.350;2023-01-25T09:39:31;-0.60;94.70
11140;DHT22;5624;49.388;11.350;2023-01-25T09:45:34;-0.70;95.20
11140;DHT22;5624;49.388;11.350;2023-01-25T09:48:28;-0.60;94.90
11140;DHT22;5624;49.388;11.350;2023-01-25T09:51:01;-0.70;95.00
11140;DHT22;5624;49.388;11.350;2023-01-25T09:53:37;-0.60;94.50
11140;DHT22;5624;49.388;11.350;2023-01-25T09:58:45;-0.60;94.80
11140;DHT22;5624;49.388;11.350;2023-01-25T10:01:18;-0.60;94.40
11140;DHT22;5624;49.388;11.350;2023-01-25T10:06:38;-0.70;94.70
11140;DHT22;5624;49.388;11.350;2023-01-25T10:09:16;-0.70;95.20
11140;DHT22;5624;49.388;11.350;2023-01-25T10:11:43;-0.60;95.30
11140;DHT22;5624;49.388;11.350;2023-01-25T10:14:14;-0.60;94.90
11140;DHT22;5624;49.388;11.350;2023-01-25T10:22:16;-0.70;95.30
11140;DHT22;5624;49.388;11.350;2023-01-25T10:29:47;-0.50;94.50
11140;DHT22;5624;49.388;11.350;2023-01-25T10:32:19;-0.50;94.40
11140;DHT22;5624;49.388;11.350;2023-01-25T10:34:48;-0.40;94.20
11140;DHT22;5624;49.388;11.350;2023-01-25T10:37:20;-0.40;93.40
11140;DHT22;5624;49.388;11.350;2023-01-25T10:40:16;-0.40;94.00
11140;DHT22;5624;49.388;11.350;2023-01-25T10:42:59;-0.30;93.30
11140;DHT22;5624;49.388;11.350;2023-01-25T10:45:26;-0.40;93.60
11140;DHT22;5624;49.388;11.350;2023-01-25T10:47:56;-0.40;93.60
11140;DHT22;5624;49.388;11.350;2023-01-25T10:53:29;-0.40;94.50
11140;DHT22;5624;49.388;11.350;2023-01-25T10:58:40;-0.40;94.30
11140;DHT22;5624;49.388;11.350;2023-01-25T11:01:09;-0.40;94.20
11140;DHT22;5624;49.388;11.350;2023-01-25T11:03:39;-0.30;93.40
11140;DHT22;5624;49.388;11.350;2023-01-25T11:06:06;-0.30;92.80
11140;DHT22;5624;49.388;11.350;2023-01-25T11:08:37;-0.30;93.80
11140;DHT22;5624;49.388;11.350;2023-01-25T11:11:23;-0.40;93.10
11140;DHT22;5624;49.388;11.350;2023-01-25T11:13:50;-0.40;93.80
11140;DHT22;5624;49.388;11.350;2023-01-25T11:16:32;-0.30;93.50
11140;DHT22;5624;49.388;11.350;2023-01-25T11:19:00;-0.30;93.90
11140;DHT22;5624;49.388;11.350;2023-01-25T11:21:29;-0.20;92.30
11140;DHT22;5624;49.388;11.350;2023-01-25T11:26:33;-0.10;92.40
11140;DHT22;5624;49.388;11.350;2023-01-25T11:29:28;-0.10;91.90
11140;DHT22;5624;49.388;11.350;2023-01-25T11:31:54;-0.10;91.30
11140;DHT22;5624;49.388;11.350;2023-01-25T11:34:26;-0.10;91.60
11140;DHT22;5624;49.388;11.350;2023-01-25T11:36:59;-0.10;92.10
11140;DHT22;5624;49.388;11.350;2023-01-25T11:39:41;-0.30;92.00
11140;DHT22;5624;49.388;11.350;2023-01-25T11:45:30;-0.30;92.60
11140;DHT22;5624;49.388;11.350;2023-01-25T11:57:20;-0.40;93.30
11140;DHT22;5624;49.388;11.350;2023-01-25T12:02:23;-0.40;92.60
11140;DHT22;5624;49.388;11.350;2023-01-25T12:04:56;-0.30;93.50
11140;DHT22;5624;49.388;11.350;2023-01-25T12:07:45;-0.20;93.00
11140;DHT22;5624;49.388;11.350;2023-01-25T12:10:49;-0.10;91.80
11140;DHT22;5624;49.388;11.350;2023-01-25T12:14:24;-0.40;92.20
11140;DHT22;5624;49.388;11.350;2023-01-25T12:16:40;-0.40;93.00
11140;DHT22;5624;49.388;11.350;2023-01-25T12:29:45;-0.20;93.50
11140;DHT22;5624;49.388;11.350;2023-01-25T12:32:22;-0.10;91.80
11140;DHT22;5624;49.388;11.350;2023-01-25T12:37:41;-0.20;91.90
11140;DHT22;5624;49.388;11.350;2023-01-25T12:40:45;-0.40;93.10
11140;DHT22;5624;49.388;11.350;2023-01-25T12:43:44;-0.40;93.50
11140;DHT22;5624;49.388;11.350;2023-01-25T12:46:20;-0.50;93.80
11140;DHT22;5624;49.388;11.350;2023-01-25T12:48:50;-0.50;94.20
11140;DHT22;5624;49.388;11.350;2023-01-25T12:51:20;-0.40;95.00
11140;DHT22;5624;49.388;11.350;2023-01-25T12:53:47;-0.30;94.70
11140;DHT22;5624;49.388;11.350;2023-01-25T12:56:31;-0.20;95.00
11140;DHT22;5624;49.388;11.350;2023-01-25T12:59:36;-0.10;94.30
11140;DHT22;5624;49.388;11.350;2023-01-25T13:02:46;-0.10;94.30
11140;DHT22;5624;49.388;11.350;2023-01-25T13:10:46;0.00;92.30
11140;DHT22;5624;49.388;11.350;2023-01-25T13:13:21;0.00;91.30
11140;DHT22;5624;49.388;11.350;2023-01-25T13:15:48;-0.10;91.60
11140;DHT22;5624;49.388;11.350;2023-01-25T13:20:51;-0.30;93.40
11140;DHT22;5624;49.388;11.350;2023-01-25T13:23:30;-0.30;93.30
11140;DHT22;5624;49.388;11.350;2023-01-25T13:26:35;-0.30;93.70
11140;DHT22;5624;49.388;11.350;2023-01-25T13:29:01;-0.40;93.80
11140;DHT22;5624;49.388;11.350;2023-01-25T13:34:11;-0.40;93.70
11140;DHT22;5624;49.388;11.350;2023-01-25T13:36:44;-0.40;93.90
11140;DHT22;5624;49.388;11.350;2023-01-25T13:39:40;-0.30;93.20
11140;DHT22;5624;49.388;11.350;2023-01-25T13:44:37;-0.50;93.80
11140;DHT22;5624;49.388;11.350;2023-01-25T13:47:11;-0.50;93.20
11140;DHT22;5624;49.388;11.350;2023-01-25T13:49:43;-0.50;93.70
11140;DHT22;5624;49.388;11.350;2023-01-25T13:52:19;-0.50;94.40
11140;DHT22;5624;49.388;11.350;2023-01-25T13:54:47;-0.50;94.20
11140;DHT22;5624;49.388;11.350;2023-01-25T13:57:18;-0.60;93.90
11140;DHT22;5624;49.388;11.350;2023-01-25T13:59:44;-0.60;94.40
11140;DHT22;5624;49.388;11.350;2023-01-25T14:02:18;-0.50;94.40
11140;DHT22;5624;49.388;11.350;2023-01-25T14:04:48;-0.50;94.80
11140;DHT22;5624;49.388;11.350;2023-01-25T14:07:20;-0.40;93.90
11140;DHT22;5624;49.388;11.350;2023-01-25T14:09:49;-0.50;93.50
11140;DHT22;5624;49.388;11.350;2023-01-25T14:12:37;-0.40;92.80
11140;DHT22;5624;49.388;11.350;2023-01-25T14:15:30;-0.50;94.00
11140;DHT22;5624;49.388;11.350;2023-01-25T14:18:26;-0.60;94.00
11140;DHT22;5624;49.388;11.350;2023-01-25T14:21:09;-0.70;94.60
11140;DHT22;5624;49.388;11.350;2023-01-25T14:23:36;-0.60;94.20
11140;DHT22;5624;49.388;11.350;2023-01-25T14:26:01;-0.70;94.50
11140;DHT22;5624;49.388;11.350;2023-01-25T14:28:28;-0.70;94.50
11140;DHT22;5624;49.388;11.350;2023-01-25T14:30:58;-0.70;95.40
11140;DHT22;5624;49.388;11.350;2023-01-25T14:33:31;-0.70;95.10
11140;DHT22;5624;49.388;11.350;2023-01-25T14:36:08;-0.70;94.20
11140;DHT22;5624;49.388;11.350;2023-01-25T14:38:43;-0.60;95.20
11140;DHT22;5624;49.388;11.350;2023-01-25T14:43:52;-0.50;94.00
11140;DHT22;5624;49.388;11.350;2023-01-25T14:48:43;-0.50;94.20
11140;DHT22;5624;49.388;11.350;2023-01-25T14:51:48;-0.50;93.40
11140;DHT22;5624;49.388;11.350;2023-01-25T14:54:24;-0.60;94.00
11140;DHT22;5624;49.388;11.350;2023-01-25T14:56:56;-0.60;94.30
11140;DHT22;5624;49.388;11.350;2023-01-25T15:02:03;-0.70;94.90
11140;DHT22;5624;49.388;11.350;2023-01-25T15:08:06;-0.70;95.30
11140;DHT22;5624;49.388;11.350;2023-01-25T15:10:53;-0.70;95.40
11140;DHT22;5624;49.388;11.350;2023-01-25T15:13:29;-0.60;95.70
11140;DHT22;5624;49.388;11.350;2023-01-25T15:15:57;-0.60;95.60
11140;DHT22;5624;49.388;11.350;2023-01-25T15:21:14;-0.60;95.60
11140;DHT22;5624;49.388;11.350;2023-01-25T15:23:41;-0.60;95.00
11140;DHT22;5624;49.388;11.350;2023-01-25T15:26:13;-0.60;95.80
11140;DHT22;5624;49.388;11.350;2023-01-25T15:28:38;-0.60;95.60
11140;DHT22;5624;49.388;11.350;2023-01-25T15:31:04;-0.60;95.20
11140;DHT22;5624;49.388;11.350;2023-01-25T15:33:30;-0.60;94.40
11140;DHT22;5624;49.388;11.350;2023-01-25T15:35:57;-0.60;93.90
11140;DHT22;5624;49.388;11.350;2023-01-25T15:38:24;-0.70;94.20
11140;DHT22;5624;49.388;11.350;2023-01-25T15:40:50;-0.80;95.20
11140;DHT22;5624;49.388;11.350;2023-01-25T15:43:17;-0.80;94.80
11140;DHT22;5624;49.388;11.350;2023-01-25T15:45:45;-0.90;95.80
11140;DHT22;5624;49.388;11.350;2023-01-25T15:48:16;-0.80;96.10
11140;DHT22;5624;49.388;11.350;2023-01-25T15:50:42;-0.80;95.50
11140;DHT22;5624;49.388;11.350;2023-01-25T15:53:13;-0.80;95.70
11140;DHT22;5624;49.388;11.350;2023-01-25T15:55:40;-0.90;95.80
11140;DHT22;5624;49.388;11.350;2023-01-25T15:58:06;-0.80;95.80
11140;DHT22;5624;49.388;11.350;2023-01-25T16:00:31;-0.80;95.90
11140;DHT22;5624;49.388;11.350;2023-01-25T16:02:57;-0.80;96.00
11140;DHT22;5624;49.388;11.350;2023-01-25T16:05:23;-0.90;96.30
11140;DHT22;5624;49.388;11.350;2023-01-25T16:07:49;-0.90;96.40
11140;DHT22;5624;49.388;11.350;2023-01-25T16:10:23;-0.90;96.60
11140;DHT22;5624;49.388;11.350;2023-01-25T16:12:50;-0.90;96.80
11140;DHT22;5624;49.388;11.350;2023-01-25T16:15:16;-0.90;97.00
11140;DHT22;5624;49.388;11.350;2023-01-25T16:17:42;-0.90;96.90
11140;DHT22;5624;49.388;11.350;2023-01-25T16:20:19;-0.90;97.10
11140;DHT22;5624;49.388;11.350;2023-01-25T16:22:46;-0.90;97.40
11140;DHT22;5624;49.388;11.350;2023-01-25T16:25:12;-0.90;97.50
11140;DHT22;5624;49.388;11.350;2023-01-25T16:27:38;-0.90;97.70
11140;DHT22;5624;49.388;11.350;2023-01-25T16:30:05;-0.80;97.20
11140;DHT22;5624;49.388;11.350;2023-01-25T16:32:31;-0.90;96.80
11140;DHT22;5624;49.388;11.350;2023-01-25T16:34:56;-0.90;96.60
11140;DHT22;5624;49.388;11.350;2023-01-25T16:37:22;-0.90;96.80
11140;DHT22;5624;49.388;11.350;2023-01-25T16:39:48;-1.00;96.60
11140;DHT22;5624;49.388;11.350;2023-01-25T16:42:17;-1.00;97.10
11140;DHT22;5624;49.388;11.350;2023-01-25T16:44:43;-1.00;97.00
11140;DHT22;5624;49.388;11.350;2023-01-25T16:47:13;-1.10;97.00
11140;DHT22;5624;49.388;11.350;2023-01-25T16:49:39;-1.00;97.50
11140;DHT22;5624;49.388;11.350;2023-01-25T16:52:06;-1.00;97.50
11140;DHT22;5624;49.388;11.350;2023-01-25T16:54:32;-1.10;97.00
11140;DHT22;5624;49.388;11.350;2023-01-25T16:56:57;-1.10;97.10
11140;DHT22;5624;49.388;11.350;2023-01-25T16:59:24;-1.10;97.60
11140;DHT22;5624;49.388;11.350;2023-01-25T17:01:50;-1.10;97.40
11140;DHT22;5624;49.388;11.350;2023-01-25T17:04:16;-1.10;97.10
11140;DHT22;5624;49.388;11.350;2023-01-25T17:06:45;-1.10;97.40
11140;DHT22;5624;49.388;11.350;2023-01-25T17:09:14;-1.10;97.50
11140;DHT22;5624;49.388;11.350;2023-01-25T17:11:40;-1.20;97.00
11140;DHT22;5624;49.388;11.350;2023-01-25T17:14:07;-1.20;97.00
11140;DHT22;5624;49.388;11.350;2023-01-25T17:16:33;-1.30;98.10